sensor_id;sensor_type;location;lat;lon;timestamp;P1;durP1;ratioP1;P2;durP2;ratioP2
77748;SDS011;66938;52.084;5.228;2023-05-07T00:00:57;20.3;;;18.61;;
77748;SDS011;66938;52.084;5.228;2023-05-07T00:02:34;20.8;;;19.0;;
77748;SDS011;66938;52.084;5.228;2023-05-07T00:05:47;20.8;;;19.0;;
77748;SDS011;66938;52.084;5.228;2023-05-07T00:07:23;20.9;;;19.2;;
77748;SDS011;66938;52.084;5.228;2023-05-07T00:08:59;20.9;;;19.2;;
77748;SDS011;66938;52.084;5.228;2023-05-07T00:12:11;22.1;;;20.2;;
77748;SDS011;66938;52.084;5.228;2023-05-07T00:13:47;19.91;;;18.3;;
77748;SDS011;66938;52.084;5.228;2023-05-07T00:15:25;20.41;;;18.7;;
77748;SDS011;66938;52.084;5.228;2023-05-07T00:18:39;18.91;;;17.2;;
77748;SDS011;66938;52.084;5.228;2023-05-07T00:20:15;19.5;;;17.8;;
77748;SDS011;66938;52.084;5.228;2023-05-07T00:21:51;18.3;;;16.7;;
77748;SDS011;66938;52.084;5.228;2023-05-07T00:23:27;16.3;;;14.9;;
77748;SDS011;66938;52.084;5.228;2023-05-07T00:26:41;16.3;;;15.0;;
77748;SDS011;66938;52.084;5.228;2023-05-07T00:28:18;17.5;;;16.11;;
77748;SDS011;66938;52.084;5.228;2023-05-07T00:29:55;16.11;;;14.7;;
77748;SDS011;66938;52.084;5.228;2023-05-07T00:33:08;18.3;;;16.61;;
77748;SDS011;66938;52.084;5.228;2023-05-07T00:34:44;16.61;;;15.3;;
77748;SDS011;66938;52.084;5.228;2023-05-07T00:36:21;16.8;;;15.4;;
77748;SDS011;66938;52.084;5.228;2023-05-07T00:39:34;16.8;;;15.4;;
77748;SDS011;66938;52.084;5.228;2023-05-07T00:41:11;17.11;;;15.6;;
77748;SDS011;66938;52.084;5.228;2023-05-07T00:42:48;15.8;;;14.6;;
77748;SDS011;66938;52.084;5.228;2023-05-07T00:44:24;15.2;;;14.0;;
77748;SDS011;66938;52.084;5.228;2023-05-07T00:47:37;15.8;;;14.5;;
77748;SDS011;66938;52.084;5.228;2023-05-07T00:49:14;17.2;;;15.8;;
77748;SDS011;66938;52.084;5.228;2023-05-07T00:50:51;19.3;;;17.7;;
77748;SDS011;66938;52.084;5.228;2023-05-07T00:54:06;19.2;;;17.61;;
77748;SDS011;66938;52.084;5.228;2023-05-07T00:55:43;19.3;;;17.7;;
77748;SDS011;66938;52.084;5.228;2023-05-07T00:57:19;18.2;;;16.61;;
77748;SDS011;66938;52.084;5.228;2023-05-07T01:00:33;18.5;;;17.0;;
77748;SDS011;66938;52.084;5.228;2023-05-07T01:02:09;18.91;;;17.41;;
77748;SDS011;66938;52.084;5.228;2023-05-07T01:03:46;18.7;;;17.2;;
77748;SDS011;66938;52.084;5.228;2023-05-07T01:05:23;18.3;;;16.8;;
77748;SDS011;66938;52.084;5.228;2023-05-07T01:08:39;17.2;;;15.8;;
77748;SDS011;66938;52.084;5.228;2023-05-07T01:10:17;17.11;;;15.7;;
77748;SDS011;66938;52.084;5.228;2023-05-07T01:11:54;17.3;;;15.8;;
77748;SDS011;66938;52.084;5.228;2023-05-07T01:15:11;16.7;;;15.3;;
77748;SDS011;66938;52.084;5.228;2023-05-07T01:16:48;16.4;;;15.0;;
77748;SDS011;66938;52.084;5.228;2023-05-07T01:18:25;17.0;;;15.6;;
77748;SDS011;66938;52.084;5.228;2023-05-07T01:20:02;16.0;;;14.7;;
77748;SDS011;66938;52.084;5.228;2023-05-07T01:23:22;15.8;;;14.5;;
77748;SDS011;66938;52.084;5.228;2023-05-07T01:25:00;15.4;;;14.2;;
77748;SDS011;66938;52.084;5.228;2023-05-07T01:26:36;16.0;;;14.7;;
77748;SDS011;66938;52.084;5.228;2023-05-07T01:29:50;15.5;;;14.2;;
77748;SDS011;66938;52.084;5.228;2023-05-07T01:31:26;15.3;;;14.0;;
77748;SDS011;66938;52.084;5.228;2023-05-07T01:33:04;15.5;;;14.3;;
77748;SDS011;66938;52.084;5.228;2023-05-07T01:34:44;15.5;;;14.3;;
77748;SDS011;66938;52.084;5.228;2023-05-07T01:38:03;15.2;;;14.0;;
77748;SDS011;66938;52.084;5.228;2023-05-07T01:39:39;14.7;;;13.4;;
77748;SDS011;66938;52.084;5.228;2023-05-07T01:41:17;14.3;;;13.2;;
77748;SDS011;66938;52.084;5.228;2023-05-07T01:44:30;15.3;;;14.0;;
77748;SDS011;66938;52.084;5.228;2023-05-07T01:46:06;15.3;;;13.9;;
77748;SDS011;66938;52.084;5.228;2023-05-07T01:47:44;14.3;;;13.1;;
77748;SDS011;66938;52.084;5.228;2023-05-07T01:49:20;16.11;;;14.7;;
77748;SDS011;66938;52.084;5.228;2023-05-07T01:52:34;14.6;;;13.4;;
77748;SDS011;66938;52.084;5.228;2023-05-07T01:54:12;17.11;;;15.5;;
77748;SDS011;66938;52.084;5.228;2023-05-07T01:55:48;14.9;;;13.6;;
77748;SDS011;66938;52.084;5.228;2023-05-07T01:59:00;17.5;;;15.9;;
77748;SDS011;66938;52.084;5.228;2023-05-07T02:00:36;13.2;;;12.1;;
77748;SDS011;66938;52.084;5.228;2023-05-07T02:02:13;13.9;;;12.7;;
77748;SDS011;66938;52.084;5.228;2023-05-07T02:05:26;14.6;;;13.4;;
77748;SDS011;66938;52.084;5.228;2023-05-07T02:07:02;13.7;;;12.5;;
77748;SDS011;66938;52.084;5.228;2023-05-07T02:08:38;14.6;;;13.3;;
77748;SDS011;66938;52.084;5.228;2023-05-07T02:10:14;14.0;;;12.8;;
77748;SDS011;66938;52.084;5.228;2023-05-07T02:13:28;13.7;;;12.6;;
77748;SDS011;66938;52.084;5.228;2023-05-07T02:15:06;13.3;;;12.2;;
77748;SDS011;66938;52.084;5.228;2023-05-07T02:16:42;13.9;;;12.7;;
77748;SDS011;66938;52.084;5.228;2023-05-07T02:19:55;14.9;;;13.7;;
77748;SDS011;66938;52.084;5.228;2023-05-07T02:21:31;16.9;;;15.4;;
77748;SDS011;66938;52.084;5.228;2023-05-07T02:23:07;15.6;;;14.2;;
77748;SDS011;66938;52.084;5.228;2023-05-07T02:26:20;14.1;;;12.8;;
77748;SDS011;66938;52.084;5.228;2023-05-07T02:27:56;13.3;;;12.2;;
77748;SDS011;66938;52.084;5.228;2023-05-07T02:29:32;14.2;;;13.0;;
77748;SDS011;66938;52.084;5.228;2023-05-07T02:31:09;14.4;;;13.1;;
77748;SDS011;66938;52.084;5.228;2023-05-07T02:34:21;14.2;;;13.0;;
77748;SDS011;66938;52.084;5.228;2023-05-07T02:36:04;14.9;;;13.7;;
77748;SDS011;66938;52.084;5.228;2023-05-07T02:37:41;14.1;;;12.8;;
77748;SDS011;66938;52.084;5.228;2023-05-07T02:40:54;15.1;;;13.8;;
77748;SDS011;66938;52.084;5.228;2023-05-07T02:42:31;16.5;;;15.1;;
77748;SDS011;66938;52.084;5.228;2023-05-07T02:44:07;16.2;;;14.8;;
77748;SDS011;66938;52.084;5.228;2023-05-07T02:45:44;15.0;;;13.7;;
77748;SDS011;66938;52.084;5.228;2023-05-07T02:48:56;15.2;;;14.0;;
77748;SDS011;66938;52.084;5.228;2023-05-07T02:50:32;15.3;;;14.0;;
77748;SDS011;66938;52.084;5.228;2023-05-07T02:52:09;16.3;;;14.9;;
77748;SDS011;66938;52.084;5.228;2023-05-07T02:55:21;17.0;;;15.5;;
77748;SDS011;66938;52.084;5.228;2023-05-07T02:56:57;16.5;;;15.1;;
77748;SDS011;66938;52.084;5.228;2023-05-07T02:58:33;16.8;;;15.5;;
77748;SDS011;66938;52.084;5.228;2023-05-07T03:01:48;17.5;;;16.0;;
77748;SDS011;66938;52.084;5.228;2023-05-07T03:03:24;18.61;;;17.11;;
77748;SDS011;66938;52.084;5.228;2023-05-07T03:05:00;18.11;;;16.61;;
77748;SDS011;66938;52.084;5.228;2023-05-07T03:08:12;18.5;;;16.7;;
77748;SDS011;66938;52.084;5.228;2023-05-07T03:09:48;18.3;;;16.8;;
77748;SDS011;66938;52.084;5.228;2023-05-07T03:11:25;19.41;;;17.7;;
77748;SDS011;66938;52.084;5.228;2023-05-07T03:13:01;16.5;;;15.1;;
77748;SDS011;66938;52.084;5.228;2023-05-07T03:16:14;17.7;;;16.2;;
77748;SDS011;66938;52.084;5.228;2023-05-07T03:17:51;18.61;;;17.0;;
77748;SDS011;66938;52.084;5.228;2023-05-07T03:19:27;16.8;;;15.4;;
77748;SDS011;66938;52.084;5.228;2023-05-07T03:22:40;18.3;;;16.7;;
77748;SDS011;66938;52.084;5.228;2023-05-07T03:24:17;17.11;;;15.5;;
77748;SDS011;66938;52.084;5.228;2023-05-07T03:25:53;19.2;;;17.5;;
77748;SDS011;66938;52.084;5.228;2023-05-07T03:29:05;22.0;;;20.0;;
77748;SDS011;66938;52.084;5.228;2023-05-07T03:30:41;19.5;;;17.91;;
77748;SDS011;66938;52.084;5.228;2023-05-07T03:32:17;20.5;;;18.7;;
77748;SDS011;66938;52.084;5.228;2023-05-07T03:33:54;18.61;;;17.0;;
77748;SDS011;66938;52.084;5.228;2023-05-07T03:37:09;20.0;;;18.41;;
77748;SDS011;66938;52.084;5.228;2023-05-07T03:38:45;22.0;;;20.11;;
77748;SDS011;66938;52.084;5.228;2023-05-07T03:40:21;19.3;;;17.7;;
77748;SDS011;66938;52.084;5.228;2023-05-07T03:43:34;22.0;;;20.2;;
77748;SDS011;66938;52.084;5.228;2023-05-07T03:45:11;20.9;;;19.2;;
77748;SDS011;66938;52.084;5.228;2023-05-07T03:46:47;21.4;;;19.61;;
77748;SDS011;66938;52.084;5.228;2023-05-07T03:49:59;18.91;;;17.41;;
77748;SDS011;66938;52.084;5.228;2023-05-07T03:51:35;19.0;;;17.41;;
77748;SDS011;66938;52.084;5.228;2023-05-07T03:53:12;21.4;;;19.61;;
77748;SDS011;66938;52.084;5.228;2023-05-07T03:54:48;19.2;;;17.61;;
77748;SDS011;66938;52.084;5.228;2023-05-07T03:58:01;19.7;;;18.0;;
77748;SDS011;66938;52.084;5.228;2023-05-07T03:59:37;20.0;;;18.41;;
77748;SDS011;66938;52.084;5.228;2023-05-07T04:01:13;24.1;;;22.0;;
77748;SDS011;66938;52.084;5.228;2023-05-07T04:04:25;22.5;;;20.8;;
77748;SDS011;66938;52.084;5.228;2023-05-07T04:06:01;21.3;;;19.5;;
77748;SDS011;66938;52.084;5.228;2023-05-07T04:07:38;21.3;;;19.5;;
77748;SDS011;66938;52.084;5.228;2023-05-07T04:10:54;23.4;;;21.5;;
77748;SDS011;66938;52.084;5.228;2023-05-07T04:12:31;24.4;;;22.4;;
77748;SDS011;66938;52.084;5.228;2023-05-07T04:14:07;24.9;;;22.9;;
77748;SDS011;66938;52.084;5.228;2023-05-07T04:15:43;27.6;;;25.4;;
77748;SDS011;66938;52.084;5.228;2023-05-07T04:18:55;27.6;;;25.3;;
77748;SDS011;66938;52.084;5.228;2023-05-07T04:20:33;29.6;;;27.2;;
77748;SDS011;66938;52.084;5.228;2023-05-07T04:22:11;30.9;;;28.1;;
77748;SDS011;66938;52.084;5.228;2023-05-07T04:25:25;28.4;;;26.0;;
77748;SDS011;66938;52.084;5.228;2023-05-07T04:27:01;23.5;;;21.7;;
77748;SDS011;66938;52.084;5.228;2023-05-07T04:28:37;23.8;;;21.9;;
77748;SDS011;66938;52.084;5.228;2023-05-07T04:31:50;23.4;;;21.6;;
77748;SDS011;66938;52.084;5.228;2023-05-07T04:33:27;26.4;;;24.3;;
77748;SDS011;66938;52.084;5.228;2023-05-07T04:35:03;27.0;;;24.9;;
77748;SDS011;66938;52.084;5.228;2023-05-07T04:36:40;28.2;;;25.9;;
77748;SDS011;66938;52.084;5.228;2023-05-07T04:39:53;26.1;;;24.1;;
77748;SDS011;66938;52.084;5.228;2023-05-07T04:41:29;28.7;;;26.4;;
77748;SDS011;66938;52.084;5.228;2023-05-07T04:43:05;30.0;;;27.4;;
77748;SDS011;66938;52.084;5.228;2023-05-07T04:46:20;30.0;;;27.4;;
77748;SDS011;66938;52.084;5.228;2023-05-07T04:47:56;30.1;;;27.5;;
77748;SDS011;66938;52.084;5.228;2023-05-07T04:49:32;27.2;;;25.1;;
77748;SDS011;66938;52.084;5.228;2023-05-07T04:52:44;27.8;;;25.7;;
77748;SDS011;66938;52.084;5.228;2023-05-07T04:54:20;29.3;;;26.9;;
77748;SDS011;66938;52.084;5.228;2023-05-07T04:55:57;28.4;;;26.0;;
77748;SDS011;66938;52.084;5.228;2023-05-07T04:57:33;30.3;;;27.8;;
77748;SDS011;66938;52.084;5.228;2023-05-07T05:00:46;32.5;;;29.9;;
77748;SDS011;66938;52.084;5.228;2023-05-07T05:02:22;33.0;;;30.3;;
77748;SDS011;66938;52.084;5.228;2023-05-07T05:03:58;28.9;;;26.7;;
77748;SDS011;66938;52.084;5.228;2023-05-07T05:07:10;31.3;;;28.8;;
77748;SDS011;66938;52.084;5.228;2023-05-07T05:08:47;32.3;;;29.6;;
77748;SDS011;66938;52.084;5.228;2023-05-07T05:10:22;30.5;;;28.0;;
77748;SDS011;66938;52.084;5.228;2023-05-07T05:13:35;28.5;;;26.3;;
77748;SDS011;66938;52.084;5.228;2023-05-07T05:15:11;27.8;;;25.7;;
77748;SDS011;66938;52.084;5.228;2023-05-07T05:16:48;28.4;;;26.2;;
77748;SDS011;66938;52.084;5.228;2023-05-07T05:18:25;27.3;;;25.1;;
77748;SDS011;66938;52.084;5.228;2023-05-07T05:21:36;30.1;;;27.7;;
77748;SDS011;66938;52.084;5.228;2023-05-07T05:23:13;27.9;;;25.6;;
77748;SDS011;66938;52.084;5.228;2023-05-07T05:24:49;26.1;;;24.1;;
77748;SDS011;66938;52.084;5.228;2023-05-07T05:28:01;26.3;;;24.1;;
77748;SDS011;66938;52.084;5.228;2023-05-07T05:29:37;27.5;;;25.3;;
77748;SDS011;66938;52.084;5.228;2023-05-07T05:31:14;26.6;;;24.5;;
77748;SDS011;66938;52.084;5.228;2023-05-07T05:34:26;26.1;;;24.0;;
77748;SDS011;66938;52.084;5.228;2023-05-07T05:36:02;25.6;;;23.6;;
77748;SDS011;66938;52.084;5.228;2023-05-07T05:37:39;26.8;;;24.5;;
77748;SDS011;66938;52.084;5.228;2023-05-07T05:40:53;25.8;;;23.8;;
77748;SDS011;66938;52.084;5.228;2023-05-07T05:42:29;25.8;;;23.7;;
77748;SDS011;66938;52.084;5.228;2023-05-07T05:44:06;24.5;;;22.6;;
77748;SDS011;66938;52.084;5.228;2023-05-07T05:45:42;23.9;;;22.0;;
77748;SDS011;66938;52.084;5.228;2023-05-07T05:48:54;30.4;;;27.7;;
77748;SDS011;66938;52.084;5.228;2023-05-07T05:50:30;27.6;;;25.3;;
77748;SDS011;66938;52.084;5.228;2023-05-07T05:52:06;26.2;;;24.0;;
77748;SDS011;66938;52.084;5.228;2023-05-07T05:55:19;27.9;;;25.3;;
77748;SDS011;66938;52.084;5.228;2023-05-07T05:56:56;26.5;;;24.4;;
77748;SDS011;66938;52.084;5.228;2023-05-07T05:58:33;24.9;;;22.8;;
77748;SDS011;66938;52.084;5.228;2023-05-07T06:01:46;24.1;;;22.2;;
77748;SDS011;66938;52.084;5.228;2023-05-07T06:03:22;22.1;;;20.3;;
77748;SDS011;66938;52.084;5.228;2023-05-07T06:04:59;24.3;;;22.3;;
77748;SDS011;66938;52.084;5.228;2023-05-07T06:06:35;25.4;;;23.3;;
77748;SDS011;66938;52.084;5.228;2023-05-07T06:09:47;23.7;;;21.8;;
77748;SDS011;66938;52.084;5.228;2023-05-07T06:11:23;24.0;;;22.1;;
77748;SDS011;66938;52.084;5.228;2023-05-07T06:12:59;22.5;;;20.8;;
77748;SDS011;66938;52.084;5.228;2023-05-07T06:16:12;22.1;;;20.3;;
77748;SDS011;66938;52.084;5.228;2023-05-07T06:17:49;23.7;;;21.8;;
77748;SDS011;66938;52.084;5.228;2023-05-07T06:19:25;21.2;;;19.5;;
77748;SDS011;66938;52.084;5.228;2023-05-07T06:22:38;21.5;;;19.61;;
77748;SDS011;66938;52.084;5.228;2023-05-07T06:24:14;22.0;;;20.2;;
77748;SDS011;66938;52.084;5.228;2023-05-07T06:25:51;21.3;;;19.61;;
77748;SDS011;66938;52.084;5.228;2023-05-07T06:27:28;23.9;;;21.9;;
77748;SDS011;66938;52.084;5.228;2023-05-07T06:30:40;22.4;;;20.5;;
77748;SDS011;66938;52.084;5.228;2023-05-07T06:32:18;21.9;;;20.11;;
77748;SDS011;66938;52.084;5.228;2023-05-07T06:33:55;22.8;;;20.9;;
77748;SDS011;66938;52.084;5.228;2023-05-07T06:37:07;21.9;;;20.0;;
77748;SDS011;66938;52.084;5.228;2023-05-07T06:38:43;20.7;;;18.91;;
77748;SDS011;66938;52.084;5.228;2023-05-07T06:40:19;22.4;;;20.6;;
77748;SDS011;66938;52.084;5.228;2023-05-07T06:43:32;20.3;;;18.61;;
77748;SDS011;66938;52.084;5.228;2023-05-07T06:45:09;20.41;;;18.7;;
77748;SDS011;66938;52.084;5.228;2023-05-07T06:46:46;22.1;;;20.2;;
77748;SDS011;66938;52.084;5.228;2023-05-07T06:48:22;24.3;;;22.3;;
77748;SDS011;66938;52.084;5.228;2023-05-07T06:51:34;25.0;;;22.9;;
77748;SDS011;66938;52.084;5.228;2023-05-07T06:53:10;23.4;;;21.4;;
77748;SDS011;66938;52.084;5.228;2023-05-07T06:54:46;20.3;;;18.7;;
77748;SDS011;66938;52.084;5.228;2023-05-07T06:57:59;22.9;;;20.9;;
77748;SDS011;66938;52.084;5.228;2023-05-07T06:59:36;22.9;;;20.9;;
77748;SDS011;66938;52.084;5.228;2023-05-07T07:01:12;21.3;;;19.5;;
77748;SDS011;66938;52.084;5.228;2023-05-07T07:04:24;21.6;;;20.0;;
77748;SDS011;66938;52.084;5.228;2023-05-07T07:06:00;19.8;;;18.2;;
77748;SDS011;66938;52.084;5.228;2023-05-07T07:07:37;22.2;;;20.2;;
77748;SDS011;66938;52.084;5.228;2023-05-07T07:10:49;20.9;;;19.2;;
77748;SDS011;66938;52.084;5.228;2023-05-07T07:12:25;21.4;;;19.61;;
77748;SDS011;66938;52.084;5.228;2023-05-07T07:14:01;22.4;;;20.6;;
77748;SDS011;66938;52.084;5.228;2023-05-07T07:15:37;21.3;;;19.61;;
77748;SDS011;66938;52.084;5.228;2023-05-07T07:18:50;23.0;;;21.1;;
77748;SDS011;66938;52.084;5.228;2023-05-07T07:20:27;20.8;;;19.2;;
77748;SDS011;66938;52.084;5.228;2023-05-07T07:22:03;21.8;;;20.0;;
77748;SDS011;66938;52.084;5.228;2023-05-07T07:25:16;21.5;;;19.8;;
77748;SDS011;66938;52.084;5.228;2023-05-07T07:26:53;23.2;;;21.4;;
77748;SDS011;66938;52.084;5.228;2023-05-07T07:28:29;24.2;;;22.2;;
77748;SDS011;66938;52.084;5.228;2023-05-07T07:31:43;23.6;;;21.8;;
77748;SDS011;66938;52.084;5.228;2023-05-07T07:33:19;24.2;;;22.1;;
77748;SDS011;66938;52.084;5.228;2023-05-07T07:34:55;23.6;;;21.7;;
77748;SDS011;66938;52.084;5.228;2023-05-07T07:36:31;26.3;;;24.1;;
77748;SDS011;66938;52.084;5.228;2023-05-07T07:39:44;24.4;;;22.4;;
77748;SDS011;66938;52.084;5.228;2023-05-07T07:41:20;24.3;;;22.2;;
77748;SDS011;66938;52.084;5.228;2023-05-07T07:42:56;22.5;;;20.7;;
77748;SDS011;66938;52.084;5.228;2023-05-07T07:46:10;21.5;;;19.61;;
77748;SDS011;66938;52.084;5.228;2023-05-07T07:47:48;22.0;;;20.2;;
77748;SDS011;66938;52.084;5.228;2023-05-07T07:49:24;23.7;;;21.8;;
77748;SDS011;66938;52.084;5.228;2023-05-07T07:52:37;25.0;;;23.0;;
77748;SDS011;66938;52.084;5.228;2023-05-07T07:54:14;24.5;;;22.4;;
77748;SDS011;66938;52.084;5.228;2023-05-07T07:55:50;26.5;;;24.3;;
77748;SDS011;66938;52.084;5.228;2023-05-07T07:57:26;24.9;;;22.9;;
77748;SDS011;66938;52.084;5.228;2023-05-07T08:00:39;22.5;;;20.7;;
77748;SDS011;66938;52.084;5.228;2023-05-07T08:02:15;24.0;;;22.0;;
77748;SDS011;66938;52.084;5.228;2023-05-07T08:03:53;24.6;;;22.5;;
77748;SDS011;66938;52.084;5.228;2023-05-07T08:07:06;24.0;;;22.0;;
77748;SDS011;66938;52.084;5.228;2023-05-07T08:08:42;24.3;;;22.3;;
77748;SDS011;66938;52.084;5.228;2023-05-07T08:10:19;20.6;;;19.0;;
77748;SDS011;66938;52.084;5.228;2023-05-07T08:13:33;22.9;;;21.1;;
77748;SDS011;66938;52.084;5.228;2023-05-07T08:15:11;20.8;;;18.91;;
77748;SDS011;66938;52.084;5.228;2023-05-07T08:16:47;20.6;;;18.91;;
77748;SDS011;66938;52.084;5.228;2023-05-07T08:18:23;19.3;;;17.8;;
77748;SDS011;66938;52.084;5.228;2023-05-07T08:21:39;18.2;;;16.8;;
77748;SDS011;66938;52.084;5.228;2023-05-07T08:23:15;18.5;;;17.11;;
77748;SDS011;66938;52.084;5.228;2023-05-07T08:24:51;20.9;;;19.11;;
77748;SDS011;66938;52.084;5.228;2023-05-07T08:28:05;19.5;;;17.91;;
77748;SDS011;66938;52.084;5.228;2023-05-07T08:29:41;21.2;;;19.5;;
77748;SDS011;66938;52.084;5.228;2023-05-07T08:31:17;20.3;;;18.7;;
77748;SDS011;66938;52.084;5.228;2023-05-07T08:34:29;21.8;;;19.7;;
77748;SDS011;66938;52.084;5.228;2023-05-07T08:36:05;18.0;;;16.5;;
77748;SDS011;66938;52.084;5.228;2023-05-07T08:37:42;19.2;;;17.7;;
77748;SDS011;66938;52.084;5.228;2023-05-07T08:39:19;18.5;;;17.0;;
77748;SDS011;66938;52.084;5.228;2023-05-07T08:42:33;20.41;;;18.8;;
77748;SDS011;66938;52.084;5.228;2023-05-07T08:44:12;19.61;;;17.91;;
77748;SDS011;66938;52.084;5.228;2023-05-07T08:45:50;19.3;;;17.8;;
77748;SDS011;66938;52.084;5.228;2023-05-07T08:49:15;19.2;;;17.7;;
77748;SDS011;66938;52.084;5.228;2023-05-07T08:50:52;20.5;;;18.91;;
77748;SDS011;66938;52.084;5.228;2023-05-07T08:52:29;19.5;;;18.0;;
77748;SDS011;66938;52.084;5.228;2023-05-07T08:54:05;20.11;;;18.61;;
77748;SDS011;66938;52.084;5.228;2023-05-07T08:57:22;22.2;;;20.41;;
77748;SDS011;66938;52.084;5.228;2023-05-07T08:58:58;21.3;;;19.61;;
77748;SDS011;66938;52.084;5.228;2023-05-07T09:00:35;22.9;;;21.1;;
77748;SDS011;66938;52.084;5.228;2023-05-07T09:03:49;23.9;;;21.8;;
77748;SDS011;66938;52.084;5.228;2023-05-07T09:05:28;20.41;;;18.7;;
77748;SDS011;66938;52.084;5.228;2023-05-07T09:07:04;20.3;;;18.61;;
77748;SDS011;66938;52.084;5.228;2023-05-07T09:08:41;22.2;;;20.41;;
77748;SDS011;66938;52.084;5.228;2023-05-07T09:12:02;21.5;;;19.5;;
77748;SDS011;66938;52.084;5.228;2023-05-07T09:13:39;19.11;;;17.61;;
77748;SDS011;66938;52.084;5.228;2023-05-07T09:15:15;18.3;;;16.9;;
77748;SDS011;66938;52.084;5.228;2023-05-07T09:18:28;18.61;;;17.2;;
77748;SDS011;66938;52.084;5.228;2023-05-07T09:20:05;17.91;;;16.5;;
77748;SDS011;66938;52.084;5.228;2023-05-07T09:21:43;19.3;;;17.7;;
77748;SDS011;66938;52.084;5.228;2023-05-07T09:23:20;17.3;;;15.9;;
77748;SDS011;66938;52.084;5.228;2023-05-07T09:26:33;19.11;;;17.5;;
77748;SDS011;66938;52.084;5.228;2023-05-07T09:28:10;17.5;;;16.0;;
77748;SDS011;66938;52.084;5.228;2023-05-07T09:29:46;15.8;;;14.5;;
77748;SDS011;66938;52.084;5.228;2023-05-07T09:33:02;16.5;;;15.1;;
77748;SDS011;66938;52.084;5.228;2023-05-07T09:34:40;16.9;;;15.5;;
77748;SDS011;66938;52.084;5.228;2023-05-07T09:36:18;14.7;;;13.5;;
77748;SDS011;66938;52.084;5.228;2023-05-07T09:37:54;15.6;;;14.4;;
77748;SDS011;66938;52.084;5.228;2023-05-07T09:41:18;13.4;;;12.3;;
77748;SDS011;66938;52.084;5.228;2023-05-07T09:42:55;14.2;;;13.0;;
77748;SDS011;66938;52.084;5.228;2023-05-07T09:44:33;14.3;;;13.0;;
77748;SDS011;66938;52.084;5.228;2023-05-07T09:47:50;13.6;;;12.4;;
77748;SDS011;66938;52.084;5.228;2023-05-07T09:49:33;12.5;;;11.4;;
77748;SDS011;66938;52.084;5.228;2023-05-07T09:51:15;12.9;;;11.7;;
77748;SDS011;66938;52.084;5.228;2023-05-07T09:53:05;13.1;;;12.0;;
77748;SDS011;66938;52.084;5.228;2023-05-07T09:54:45;12.5;;;11.4;;
77748;SDS011;66938;52.084;5.228;2023-05-07T09:58:01;11.4;;;10.4;;
77748;SDS011;66938;52.084;5.228;2023-05-07T09:59:40;8.0;;;7.2;;
77748;SDS011;66938;52.084;5.228;2023-05-07T10:01:19;10.9;;;8.2;;
77748;SDS011;66938;52.084;5.228;2023-05-07T10:02:57;7.2;;;6.5;;
77748;SDS011;66938;52.084;5.228;2023-05-07T10:06:12;6.9;;;6.3;;
77748;SDS011;66938;52.084;5.228;2023-05-07T10:07:51;6.4;;;5.8;;
77748;SDS011;66938;52.084;5.228;2023-05-07T10:09:29;7.6;;;6.9;;
77748;SDS011;66938;52.084;5.228;2023-05-07T10:12:42;8.5;;;7.7;;
77748;SDS011;66938;52.084;5.228;2023-05-07T10:14:19;7.5;;;6.8;;
77748;SDS011;66938;52.084;5.228;2023-05-07T10:15:57;7.4;;;6.8;;
77748;SDS011;66938;52.084;5.228;2023-05-07T10:17:35;7.3;;;6.6;;
77748;SDS011;66938;52.084;5.228;2023-05-07T10:20:49;8.0;;;7.3;;
77748;SDS011;66938;52.084;5.228;2023-05-07T10:22:28;7.9;;;7.2;;
77748;SDS011;66938;52.084;5.228;2023-05-07T10:24:13;8.5;;;7.4;;
77748;SDS011;66938;52.084;5.228;2023-05-07T10:25:55;10.0;;;7.9;;
77748;SDS011;66938;52.084;5.228;2023-05-07T10:29:12;8.2;;;7.4;;
77748;SDS011;66938;52.084;5.228;2023-05-07T10:31:04;9.1;;;8.2;;
77748;SDS011;66938;52.084;5.228;2023-05-07T10:33:01;9.6;;;8.2;;
77748;SDS011;66938;52.084;5.228;2023-05-07T10:34:42;9.9;;;8.31;;
77748;SDS011;66938;52.084;5.228;2023-05-07T10:37:59;11.0;;;10.0;;
77748;SDS011;66938;52.084;5.228;2023-05-07T10:39:35;10.4;;;9.5;;
77748;SDS011;66938;52.084;5.228;2023-05-07T10:41:12;9.1;;;8.31;;
77748;SDS011;66938;52.084;5.228;2023-05-07T10:42:52;9.21;;;8.4;;
77748;SDS011;66938;52.084;5.228;2023-05-07T10:46:10;9.4;;;8.6;;
77748;SDS011;66938;52.084;5.228;2023-05-07T10:48:06;9.6;;;8.81;;
77748;SDS011;66938;52.084;5.228;2023-05-07T10:50:51;9.6;;;8.81;;
77748;SDS011;66938;52.084;5.228;2023-05-07T10:53:27;9.81;;;8.9;;
77748;SDS011;66938;52.084;5.228;2023-05-07T10:55:19;8.4;;;7.6;;
77748;SDS011;66938;52.084;5.228;2023-05-07T10:57:44;9.9;;;9.0;;
77748;SDS011;66938;52.084;5.228;2023-05-07T10:59:30;9.31;;;8.4;;
77748;SDS011;66938;52.084;5.228;2023-05-07T11:01:11;9.71;;;8.81;;
77748;SDS011;66938;52.084;5.228;2023-05-07T11:03:19;9.71;;;8.9;;
77748;SDS011;66938;52.084;5.228;2023-05-07T11:05:28;9.4;;;8.5;;
77748;SDS011;66938;52.084;5.228;2023-05-07T11:07:21;9.71;;;8.81;;
77748;SDS011;66938;52.084;5.228;2023-05-07T11:09:06;10.5;;;9.6;;
77748;SDS011;66938;52.084;5.228;2023-05-07T11:10:50;10.7;;;9.71;;
77748;SDS011;66938;52.084;5.228;2023-05-07T11:12:52;9.4;;;8.5;;
77748;SDS011;66938;52.084;5.228;2023-05-07T11:14:44;10.0;;;9.21;;
77748;SDS011;66938;52.084;5.228;2023-05-07T11:16:23;11.4;;;10.4;;
77748;SDS011;66938;52.084;5.228;2023-05-07T11:19:51;10.3;;;9.4;;
77748;SDS011;66938;52.084;5.228;2023-05-07T11:21:32;13.0;;;11.3;;
77748;SDS011;66938;52.084;5.228;2023-05-07T11:23:39;11.3;;;10.21;;
77748;SDS011;66938;52.084;5.228;2023-05-07T11:25:35;9.6;;;8.81;;
77748;SDS011;66938;52.084;5.228;2023-05-07T11:27:12;12.2;;;11.0;;
77748;SDS011;66938;52.084;5.228;2023-05-07T11:28:49;13.5;;;12.3;;
77748;SDS011;66938;52.084;5.228;2023-05-07T11:32:04;12.2;;;11.1;;
77748;SDS011;66938;52.084;5.228;2023-05-07T11:33:43;12.9;;;11.6;;
77748;SDS011;66938;52.084;5.228;2023-05-07T11:35:22;10.4;;;9.4;;
77748;SDS011;66938;52.084;5.228;2023-05-07T11:38:36;11.1;;;10.1;;
77748;SDS011;66938;52.084;5.228;2023-05-07T11:40:14;12.8;;;11.7;;
77748;SDS011;66938;52.084;5.228;2023-05-07T11:41:50;12.2;;;11.1;;
77748;SDS011;66938;52.084;5.228;2023-05-07T11:43:26;10.1;;;9.1;;
77748;SDS011;66938;52.084;5.228;2023-05-07T11:46:43;10.6;;;9.6;;
77748;SDS011;66938;52.084;5.228;2023-05-07T11:48:20;11.3;;;10.21;;
77748;SDS011;66938;52.084;5.228;2023-05-07T11:50:02;11.7;;;9.9;;
77748;SDS011;66938;52.084;5.228;2023-05-07T11:51:42;10.9;;;9.9;;
77748;SDS011;66938;52.084;5.228;2023-05-07T11:54:56;10.1;;;9.1;;
77748;SDS011;66938;52.084;5.228;2023-05-07T11:56:35;11.4;;;10.4;;
77748;SDS011;66938;52.084;5.228;2023-05-07T11:58:11;11.3;;;10.21;;
77748;SDS011;66938;52.084;5.228;2023-05-07T12:01:35;10.21;;;9.21;;
77748;SDS011;66938;52.084;5.228;2023-05-07T12:03:11;10.6;;;9.5;;
77748;SDS011;66938;52.084;5.228;2023-05-07T12:04:47;10.5;;;9.6;;
77748;SDS011;66938;52.084;5.228;2023-05-07T12:06:24;11.2;;;10.1;;
77748;SDS011;66938;52.084;5.228;2023-05-07T12:09:36;10.9;;;9.81;;
77748;SDS011;66938;52.084;5.228;2023-05-07T12:11:14;10.3;;;9.31;;
77748;SDS011;66938;52.084;5.228;2023-05-07T12:12:52;11.1;;;10.0;;
77748;SDS011;66938;52.084;5.228;2023-05-07T12:16:05;10.8;;;9.81;;
77748;SDS011;66938;52.084;5.228;2023-05-07T12:17:42;9.5;;;8.6;;
77748;SDS011;66938;52.084;5.228;2023-05-07T12:19:19;10.1;;;9.1;;
77748;SDS011;66938;52.084;5.228;2023-05-07T12:22:35;10.0;;;8.9;;
77748;SDS011;66938;52.084;5.228;2023-05-07T12:24:13;8.2;;;7.3;;
77748;SDS011;66938;52.084;5.228;2023-05-07T12:25:50;9.21;;;8.31;;
77748;SDS011;66938;52.084;5.228;2023-05-07T12:27:27;10.8;;;9.71;;
77748;SDS011;66938;52.084;5.228;2023-05-07T12:30:40;10.4;;;9.4;;
77748;SDS011;66938;52.084;5.228;2023-05-07T12:32:19;11.8;;;10.7;;
77748;SDS011;66938;52.084;5.228;2023-05-07T12:33:58;12.3;;;11.1;;
77748;SDS011;66938;52.084;5.228;2023-05-07T12:37:16;12.5;;;11.3;;